MSC Fabiola — A8VL5 — position and weather

sailwx.info

Track history (hours):
 
Tides and Currents Weather Stations Pressure Air Temp Water Temp Dewpoint Dewpoint Depression Visibility Wind Speed Wind Dir Waves Ship Positions

MSC Fabiola

Last reported at 2014-Sep-23 16:25 UTC. Time now 2014-Sep-23 20:26 UTC.
Position N 36°00' E 120°12'.

Length 366 m; draft 11.4 m.

Type: Ship. MMSI: 636092019.

Date/timePositionNaut miles runAvg speedWind from/ knotsBaromVisibWave heightAir tempDewpointWater temp
2014-Sep-23 16:25N 36°00' E 120°12'5 6.0
2014-Sep-23 15:33N 36°02' E 120°18'10 9.7
2014-Sep-23 14:33N 35°60' E 120°30'  
2014-Sep-20 10:22N 38°22' E 121°15'15717.5
2014-Sep-20 01:23N 38°57' E 117°58'911.0
2014-Sep-20 00:33N 38°60' E 117°47'0 0.2
2014-Sep-19 23:25N 38°60' E 117°47'0 0.0
2014-Sep-19 22:13N 38°60' E 117°47'0 0.0
2014-Sep-19 20:31N 38°60' E 117°47'0 0.0
2014-Sep-19 19:31N 38°60' E 117°47'0 0.0
2014-Sep-19 18:25N 38°60' E 117°47'0 0.0
2014-Sep-19 17:19N 38°60' E 117°47'0 0.0
2014-Sep-19 16:25N 38°60' E 117°47'0 0.0
2014-Sep-19 15:25N 38°60' E 117°47'0 0.0
2014-Sep-19 14:31N 38°60' E 117°47'0 0.0
2014-Sep-19 13:19N 38°60' E 117°47'0 0.0
2014-Sep-19 12:25N 38°60' E 117°47'0 0.0
2014-Sep-19 11:31N 38°60' E 117°47'0 0.0
2014-Sep-19 10:25N 38°60' E 117°47'0 0.0
2014-Sep-19 09:19N 38°60' E 117°47'0 0.0
2014-Sep-19 08:31N 38°60' E 117°47'0 0.0
2014-Sep-19 07:25N 38°60' E 117°47'0 0.0
2014-Sep-19 06:25N 38°60' E 117°47'0 0.0
2014-Sep-19 05:19N 38°60' E 117°47'0 0.0
2014-Sep-19 04:25N 38°60' E 117°47'0 0.0
2014-Sep-19 03:31N 38°60' E 117°47'0 0.0
2014-Sep-19 02:25N 38°60' E 117°47'0 0.0
2014-Sep-19 01:31N 38°60' E 117°47'0 0.0
2014-Sep-19 00:25N 38°60' E 117°47'0 0.1
2014-Sep-18 23:33N 38°60' E 117°47'8 8.0
2014-Sep-18 22:31N 38°57' E 117°57'8 6.8
2014-Sep-18 21:21N 38°55' E 118°07'3 3.8
2014-Sep-18 20:33N 38°54' E 118°10'8014.7
2014-Sep-18 15:06N 38°43' E 119°53'1217.7
2014-Sep-18 14:26N 38°42' E 120°07'3317.6
2014-Sep-18 12:33N 38°37' E 120°49'1313.5
2014-Sep-18 11:33N 38°32' E 121°06'1915.9
2014-Sep-18 10:23N 38°26' E 121°28'42016.2
2014-Sep-17 08:31N 31°36' E 123°20'4618.8
2014-Sep-17 06:06N 30°50' E 123°25'3118.6
2014-Sep-17 04:25N 30°19' E 123°22'1618.2
2014-Sep-17 03:33N 30°04' E 123°23'1918.8
2014-Sep-17 02:33N 29°45' E 123°18'2218.5
2014-Sep-17 01:22N 29°25' E 123°10'40418.5
2014-Sep-16 03:29N 24°01' E 118°39'1819.3
2014-Sep-16 02:33N 23°50' E 118°23'1919.1
2014-Sep-16 01:32N 23°37' E 118°07'2118.1
2014-Sep-16 00:25N 23°25' E 117°50'2016.4
2014-Sep-15 23:13N 23°13' E 117°32'3216.4
2014-Sep-15 21:17N 22°53' E 117°05'168 6.0
2014-Sep-14 17:06N 22°20' E 114°07'  
Track history (hours):
 
Tides and Currents Weather Stations Pressure Air Temp Water Temp Dewpoint Dewpoint Depression Visibility Wind Speed Wind Dir Waves Ship Positions

MSC Fabiola

Last reported at 2014-Sep-23 16:25 UTC. Time now 2014-Sep-23 20:26 UTC.
Position N 36°00' E 120°12'.

Length 366 m; draft 11.4 m.

Type: Ship. MMSI: 636092019.

Date/timePositionNaut miles runAvg speedWind from/ knotsBaromVisibWave heightAir tempDewpointWater temp
2014-Sep-23 16:25N 36°00' E 120°12'5 6.0
2014-Sep-23 15:33N 36°02' E 120°18'10 9.7
2014-Sep-23 14:33N 35°60' E 120°30'  
2014-Sep-20 10:22N 38°22' E 121°15'15717.5
2014-Sep-20 01:23N 38°57' E 117°58'911.0
2014-Sep-20 00:33N 38°60' E 117°47'0 0.2
2014-Sep-19 23:25N 38°60' E 117°47'0 0.0
2014-Sep-19 22:13N 38°60' E 117°47'0 0.0
2014-Sep-19 20:31N 38°60' E 117°47'0 0.0
2014-Sep-19 19:31N 38°60' E 117°47'0 0.0
2014-Sep-19 18:25N 38°60' E 117°47'0 0.0
2014-Sep-19 17:19N 38°60' E 117°47'0 0.0
2014-Sep-19 16:25N 38°60' E 117°47'0 0.0
2014-Sep-19 15:25N 38°60' E 117°47'0 0.0
2014-Sep-19 14:31N 38°60' E 117°47'0 0.0
2014-Sep-19 13:19N 38°60' E 117°47'0 0.0
2014-Sep-19 12:25N 38°60' E 117°47'0 0.0
2014-Sep-19 11:31N 38°60' E 117°47'0 0.0
2014-Sep-19 10:25N 38°60' E 117°47'0 0.0
2014-Sep-19 09:19N 38°60' E 117°47'0 0.0
2014-Sep-19 08:31N 38°60' E 117°47'0 0.0
2014-Sep-19 07:25N 38°60' E 117°47'0 0.0
2014-Sep-19 06:25N 38°60' E 117°47'0 0.0
2014-Sep-19 05:19N 38°60' E 117°47'0 0.0
2014-Sep-19 04:25N 38°60' E 117°47'0 0.0
2014-Sep-19 03:31N 38°60' E 117°47'0 0.0
2014-Sep-19 02:25N 38°60' E 117°47'0 0.0
2014-Sep-19 01:31N 38°60' E 117°47'0 0.0
2014-Sep-19 00:25N 38°60' E 117°47'0 0.1
2014-Sep-18 23:33N 38°60' E 117°47'8 8.0
2014-Sep-18 22:31N 38°57' E 117°57'8 6.8
2014-Sep-18 21:21N 38°55' E 118°07'3 3.8
2014-Sep-18 20:33N 38°54' E 118°10'8014.7
2014-Sep-18 15:06N 38°43' E 119°53'1217.7
2014-Sep-18 14:26N 38°42' E 120°07'3317.6
2014-Sep-18 12:33N 38°37' E 120°49'1313.5
2014-Sep-18 11:33N 38°32' E 121°06'1915.9
2014-Sep-18 10:23N 38°26' E 121°28'42016.2
2014-Sep-17 08:31N 31°36' E 123°20'4618.8
2014-Sep-17 06:06N 30°50' E 123°25'3118.6
2014-Sep-17 04:25N 30°19' E 123°22'1618.2
2014-Sep-17 03:33N 30°04' E 123°23'1918.8
2014-Sep-17 02:33N 29°45' E 123°18'2218.5
2014-Sep-17 01:22N 29°25' E 123°10'40418.5
2014-Sep-16 03:29N 24°01' E 118°39'1819.3
2014-Sep-16 02:33N 23°50' E 118°23'1919.1
2014-Sep-16 01:32N 23°37' E 118°07'2118.1
2014-Sep-16 00:25N 23°25' E 117°50'2016.4
2014-Sep-15 23:13N 23°13' E 117°32'3216.4
2014-Sep-15 21:17N 22°53' E 117°05'168 6.0
2014-Sep-14 17:06N 22°20' E 114°07'  

Dump ship's entire track history